sensor_id;sensor_type;location;lat;lon;timestamp;pressure;altitude;pressure_sealevel;temperature;humidity
11523;BME280;40093;43.224;27.910;2022-12-05T00:01:27;101728.72;;;6.96;100.00
11523;BME280;40093;43.224;27.910;2022-12-05T00:03:56;101722.44;;;6.79;100.00
11523;BME280;40093;43.224;27.910;2022-12-05T00:06:25;101733.53;;;6.82;100.00
11523;BME280;40093;43.224;27.910;2022-12-05T00:08:53;101740.97;;;6.82;100.00
11523;BME280;40093;43.224;27.910;2022-12-05T00:11:25;101725.16;;;6.70;100.00
11523;BME280;40093;43.224;27.910;2022-12-05T00:13:54;101724.03;;;6.71;100.00
11523;BME280;40093;43.224;27.910;2022-12-05T00:16:23;101719.03;;;6.73;100.00
11523;BME280;40093;43.224;27.910;2022-12-05T00:18:51;101731.59;;;6.74;100.00
11523;BME280;40093;43.224;27.910;2022-12-05T00:21:20;101727.44;;;6.68;100.00
11523;BME280;40093;43.224;27.910;2022-12-05T00:23:48;101725.16;;;6.70;100.00
11523;BME280;40093;43.224;27.910;2022-12-05T00:26:15;101733.69;;;6.69;100.00
11523;BME280;40093;43.224;27.910;2022-12-05T00:28:44;101724.03;;;6.63;100.00
11523;BME280;40093;43.224;27.910;2022-12-05T00:31:13;101731.59;;;6.57;100.00
11523;BME280;40093;43.224;27.910;2022-12-05T00:33:40;101719.53;;;6.58;100.00
11523;BME280;40093;43.224;27.910;2022-12-05T00:36:10;101732.84;;;6.51;100.00
11523;BME280;40093;43.224;27.910;2022-12-05T00:38:38;101717.25;;;6.52;100.00
11523;BME280;40093;43.224;27.910;2022-12-05T00:41:07;101704.25;;;6.57;100.00
11523;BME280;40093;43.224;27.910;2022-12-05T00:43:35;101706.63;;;6.59;100.00
11523;BME280;40093;43.224;27.910;2022-12-05T00:46:05;101724.81;;;6.63;100.00
11523;BME280;40093;43.224;27.910;2022-12-05T00:48:33;101710.31;;;6.46;100.00
11523;BME280;40093;43.224;27.910;2022-12-05T00:51:01;101721.44;;;6.49;100.00
11523;BME280;40093;43.224;27.910;2022-12-05T00:53:28;101706.81;;;6.45;100.00
11523;BME280;40093;43.224;27.910;2022-12-05T00:55:55;101700.03;;;6.43;100.00
11523;BME280;40093;43.224;27.910;2022-12-05T00:58:22;101701.81;;;6.56;100.00
11523;BME280;40093;43.224;27.910;2022-12-05T01:00:49;101702.47;;;6.61;100.00
11523;BME280;40093;43.224;27.910;2022-12-05T01:03:17;101707.28;;;6.64;100.00
11523;BME280;40093;43.224;27.910;2022-12-05T01:05:44;101708.09;;;6.56;100.00
11523;BME280;40093;43.224;27.910;2022-12-05T01:08:11;101707.28;;;6.56;100.00
11523;BME280;40093;43.224;27.910;2022-12-05T01:10:38;101707.47;;;6.59;100.00
11523;BME280;40093;43.224;27.910;2022-12-05T01:13:05;101709.22;;;6.55;100.00
11523;BME280;40093;43.224;27.910;2022-12-05T01:15:35;101705.84;;;6.58;100.00
11523;BME280;40093;43.224;27.910;2022-12-05T01:18:02;101702.78;;;6.60;100.00
11523;BME280;40093;43.224;27.910;2022-12-05T01:20:31;101695.88;;;6.62;100.00
11523;BME280;40093;43.224;27.910;2022-12-05T01:22:57;101694.75;;;6.72;100.00
11523;BME280;40093;43.224;27.910;2022-12-05T01:25:24;101690.75;;;6.61;100.00
11523;BME280;40093;43.224;27.910;2022-12-05T01:27:51;101674.00;;;6.45;100.00
11523;BME280;40093;43.224;27.910;2022-12-05T01:30:18;101690.69;;;6.44;100.00
11523;BME280;40093;43.224;27.910;2022-12-05T01:32:45;101678.16;;;6.43;100.00
11523;BME280;40093;43.224;27.910;2022-12-05T01:35:12;101688.78;;;6.44;100.00
11523;BME280;40093;43.224;27.910;2022-12-05T01:37:41;101681.06;;;6.46;100.00
11523;BME280;40093;43.224;27.910;2022-12-05T01:40:09;101678.81;;;6.48;100.00
11523;BME280;40093;43.224;27.910;2022-12-05T01:42:36;101679.59;;;6.40;100.00
11523;BME280;40093;43.224;27.910;2022-12-05T01:45:13;101667.22;;;6.34;100.00
11523;BME280;40093;43.224;27.910;2022-12-05T01:47:41;101665.94;;;6.40;100.00
11523;BME280;40093;43.224;27.910;2022-12-05T01:50:09;101651.78;;;6.38;100.00
11523;BME280;40093;43.224;27.910;2022-12-05T01:52:37;101657.25;;;6.47;100.00
11523;BME280;40093;43.224;27.910;2022-12-05T01:55:11;101654.50;;;6.47;100.00
11523;BME280;40093;43.224;27.910;2022-12-05T01:57:39;101649.84;;;6.47;100.00
11523;BME280;40093;43.224;27.910;2022-12-05T02:00:10;101633.13;;;6.40;100.00
11523;BME280;40093;43.224;27.910;2022-12-05T02:02:39;101654.69;;;6.59;100.00
11523;BME280;40093;43.224;27.910;2022-12-05T02:05:10;101649.53;;;6.66;100.00
11523;BME280;40093;43.224;27.910;2022-12-05T02:07:39;101649.72;;;6.61;100.00
11523;BME280;40093;43.224;27.910;2022-12-05T02:10:09;101643.25;;;6.65;100.00
11523;BME280;40093;43.224;27.910;2022-12-05T02:12:37;101630.06;;;6.50;100.00
11523;BME280;40093;43.224;27.910;2022-12-05T02:15:17;101655.81;;;6.58;100.00
11523;BME280;40093;43.224;27.910;2022-12-05T02:17:53;101648.91;;;6.60;100.00
11523;BME280;40093;43.224;27.910;2022-12-05T02:20:34;101625.06;;;6.52;100.00
11523;BME280;40093;43.224;27.910;2022-12-05T02:23:26;101641.03;;;6.67;100.00
11523;BME280;40093;43.224;27.910;2022-12-05T02:32:20;101643.75;;;6.76;100.00
11523;BME280;40093;43.224;27.910;2022-12-05T02:34:56;101641.97;;;6.71;100.00
11523;BME280;40093;43.224;27.910;2022-12-05T02:37:28;101654.88;;;6.71;100.00
11523;BME280;40093;43.224;27.910;2022-12-05T02:40:04;101649.53;;;6.74;100.00
11523;BME280;40093;43.224;27.910;2022-12-05T02:42:41;101637.63;;;6.70;100.00
11523;BME280;40093;43.224;27.910;2022-12-05T02:45:12;101661.09;;;6.80;100.00
11523;BME280;40093;43.224;27.910;2022-12-05T02:47:45;101660.78;;;6.81;100.00
11523;BME280;40093;43.224;27.910;2022-12-05T02:50:16;101679.13;;;6.81;100.00
11523;BME280;40093;43.224;27.910;2022-12-05T02:52:47;101684.94;;;6.79;100.00
11523;BME280;40093;43.224;27.910;2022-12-05T02:55:16;101677.03;;;6.86;100.00
11523;BME280;40093;43.224;27.910;2022-12-05T02:57:47;101669.66;;;6.78;100.00
11523;BME280;40093;43.224;27.910;2022-12-05T03:00:16;101681.09;;;6.80;100.00
11523;BME280;40093;43.224;27.910;2022-12-05T03:02:47;101673.53;;;6.77;100.00
11523;BME280;40093;43.224;27.910;2022-12-05T03:05:19;101671.75;;;6.81;100.00
11523;BME280;40093;43.224;27.910;2022-12-05T03:07:50;101690.41;;;6.79;100.00
11523;BME280;40093;43.224;27.910;2022-12-05T03:10:22;101682.84;;;6.68;100.00
11523;BME280;40093;43.224;27.910;2022-12-05T03:12:55;101684.63;;;6.72;100.00
11523;BME280;40093;43.224;27.910;2022-12-05T03:15:26;101684.94;;;6.79;100.00
11523;BME280;40093;43.224;27.910;2022-12-05T03:18:00;101679.28;;;6.84;100.00
11523;BME280;40093;43.224;27.910;2022-12-05T03:20:33;101685.91;;;6.83;100.00
11523;BME280;40093;43.224;27.910;2022-12-05T03:23:05;101691.06;;;6.85;100.00
11523;BME280;40093;43.224;27.910;2022-12-05T03:25:38;101694.94;;;6.84;100.00
11523;BME280;40093;43.224;27.910;2022-12-05T03:28:12;101665.63;;;6.67;100.00
11523;BME280;40093;43.224;27.910;2022-12-05T03:30:46;101672.06;;;6.71;100.00
11523;BME280;40093;43.224;27.910;2022-12-05T03:33:21;101675.75;;;6.75;100.00
11523;BME280;40093;43.224;27.910;2022-12-05T03:35:56;101668.38;;;6.67;100.00
11523;BME280;40093;43.224;27.910;2022-12-05T03:38:30;101664.69;;;6.72;100.00
11523;BME280;40093;43.224;27.910;2022-12-05T03:41:05;101668.84;;;6.69;100.00
11523;BME280;40093;43.224;27.910;2022-12-05T03:43:39;101668.84;;;6.69;100.00
11523;BME280;40093;43.224;27.910;2022-12-05T03:46:13;101673.66;;;6.72;100.00
11523;BME280;40093;43.224;27.910;2022-12-05T03:48:49;101667.72;;;6.70;100.00
11523;BME280;40093;43.224;27.910;2022-12-05T03:51:21;101657.91;;;6.69;100.00
11523;BME280;40093;43.224;27.910;2022-12-05T03:53:53;101660.16;;;6.76;100.00
11523;BME280;40093;43.224;27.910;2022-12-05T03:56:25;101664.66;;;6.80;100.00
11523;BME280;40093;43.224;27.910;2022-12-05T03:58:58;101670.13;;;6.80;100.00
11523;BME280;40093;43.224;27.910;2022-12-05T04:01:30;101680.44;;;6.75;100.00
11523;BME280;40093;43.224;27.910;2022-12-05T04:04:03;101676.75;;;6.71;100.00
11523;BME280;40093;43.224;27.910;2022-12-05T04:06:36;101663.84;;;6.80;100.00
11523;BME280;40093;43.224;27.910;2022-12-05T04:09:08;101678.50;;;6.84;100.00
11523;BME280;40093;43.224;27.910;2022-12-05T04:11:39;101675.94;;;6.87;100.00
11523;BME280;40093;43.224;27.910;2022-12-05T04:14:11;101682.03;;;6.84;100.00
11523;BME280;40093;43.224;27.910;2022-12-05T04:16:42;101682.22;;;6.79;100.00
11523;BME280;40093;43.224;27.910;2022-12-05T04:19:37;101680.75;;;6.73;100.00
11523;BME280;40093;43.224;27.910;2022-12-05T04:22:24;101683.16;;;6.75;100.00
11523;BME280;40093;43.224;27.910;2022-12-05T04:24:53;101684.94;;;6.79;100.00
11523;BME280;40093;43.224;27.910;2022-12-05T04:27:53;101686.56;;;6.80;100.00
11523;BME280;40093;43.224;27.910;2022-12-05T04:30:30;101679.31;;;6.76;100.00
11523;BME280;40093;43.224;27.910;2022-12-05T04:33:04;101696.03;;;6.74;100.00
11523;BME280;40093;43.224;27.910;2022-12-05T04:35:35;101697.34;;;6.77;100.00
11523;BME280;40093;43.224;27.910;2022-12-05T04:38:07;101699.28;;;6.85;100.00
11523;BME280;40093;43.224;27.910;2022-12-05T04:40:40;101693.81;;;6.76;100.00
11523;BME280;40093;43.224;27.910;2022-12-05T04:43:11;101710.38;;;6.88;100.00
11523;BME280;40093;43.224;27.910;2022-12-05T04:45:40;101708.59;;;7.01;100.00
11523;BME280;40093;43.224;27.910;2022-12-05T04:48:12;101710.19;;;7.02;100.00
11523;BME280;40093;43.224;27.910;2022-12-05T04:50:44;101708.75;;;7.04;100.00
11523;BME280;40093;43.224;27.910;2022-12-05T04:53:12;101713.59;;;6.90;100.00
11523;BME280;40093;43.224;27.910;2022-12-05T04:55:42;101703.94;;;7.01;100.00
11523;BME280;40093;43.224;27.910;2022-12-05T04:58:19;101718.72;;;7.09;100.00
11523;BME280;40093;43.224;27.910;2022-12-05T05:00:52;101718.75;;;7.00;100.00
11523;BME280;40093;43.224;27.910;2022-12-05T05:03:25;101723.91;;;7.10;100.00
11523;BME280;40093;43.224;27.910;2022-12-05T05:05:55;101723.25;;;7.13;100.00
11523;BME280;40093;43.224;27.910;2022-12-05T05:08:25;101722.59;;;7.08;100.00
11523;BME280;40093;43.224;27.910;2022-12-05T05:11:03;101708.78;;;6.87;100.00
11523;BME280;40093;43.224;27.910;2022-12-05T05:13:33;101716.63;;;6.97;100.00
11523;BME280;40093;43.224;27.910;2022-12-05T05:16:00;101717.75;;;7.13;100.00
11523;BME280;40093;43.224;27.910;2022-12-05T05:18:27;101715.34;;;7.12;100.00
11523;BME280;40093;43.224;27.910;2022-12-05T05:20:56;101712.94;;;7.10;100.00
11523;BME280;40093;43.224;27.910;2022-12-05T05:23:23;101717.75;;;7.13;100.00
11523;BME280;40093;43.224;27.910;2022-12-05T05:25:54;101722.91;;;7.06;100.00
11523;BME280;40093;43.224;27.910;2022-12-05T05:28:21;101715.34;;;7.03;100.00
11523;BME280;40093;43.224;27.910;2022-12-05T05:30:48;101735.47;;;7.07;100.00
11523;BME280;40093;43.224;27.910;2022-12-05T05:33:15;101733.25;;;7.09;100.00
11523;BME280;40093;43.224;27.910;2022-12-05T05:35:42;101727.28;;;6.90;100.00
11523;BME280;40093;43.224;27.910;2022-12-05T05:38:10;101719.22;;;7.02;100.00
11523;BME280;40093;43.224;27.910;2022-12-05T05:40:38;101733.84;;;7.06;100.00
11523;BME280;40093;43.224;27.910;2022-12-05T05:43:05;101720.19;;;6.98;100.00
11523;BME280;40093;43.224;27.910;2022-12-05T05:45:32;101739.53;;;6.93;100.00
11523;BME280;40093;43.224;27.910;2022-12-05T05:47:58;101711.16;;;6.89;100.00
11523;BME280;40093;43.224;27.910;2022-12-05T05:50:25;101712.13;;;6.84;100.00
11523;BME280;40093;43.224;27.910;2022-12-05T05:52:52;101720.66;;;6.91;100.00
11523;BME280;40093;43.224;27.910;2022-12-05T05:55:20;101723.88;;;6.93;100.00
11523;BME280;40093;43.224;27.910;2022-12-05T05:57:47;101725.31;;;6.91;100.00
11523;BME280;40093;43.224;27.910;2022-12-05T06:00:15;101713.59;;;6.82;100.00
11523;BME280;40093;43.224;27.910;2022-12-05T06:02:42;101716.66;;;6.80;100.00
11523;BME280;40093;43.224;27.910;2022-12-05T06:05:09;101709.09;;;6.77;100.00
11523;BME280;40093;43.224;27.910;2022-12-05T06:07:36;101719.69;;;6.70;100.00
11523;BME280;40093;43.224;27.910;2022-12-05T06:10:05;101726.78;;;6.71;100.00
11523;BME280;40093;43.224;27.910;2022-12-05T06:12:35;101700.56;;;6.62;100.00
11523;BME280;40093;43.224;27.910;2022-12-05T06:15:02;101723.72;;;6.81;100.00
11523;BME280;40093;43.224;27.910;2022-12-05T06:17:29;101718.91;;;6.87;100.00
11523;BME280;40093;43.224;27.910;2022-12-05T06:19:56;101730.47;;;7.01;100.00
11523;BME280;40093;43.224;27.910;2022-12-05T06:22:23;101723.22;;;6.96;100.00
11523;BME280;40093;43.224;27.910;2022-12-05T06:24:50;101731.31;;;7.01;100.00
11523;BME280;40093;43.224;27.910;2022-12-05T06:27:17;101745.28;;;7.00;100.00
11523;BME280;40093;43.224;27.910;2022-12-05T06:29:46;101746.94;;;7.09;100.00
11523;BME280;40093;43.224;27.910;2022-12-05T06:32:13;101744.66;;;7.20;100.00
11523;BME280;40093;43.224;27.910;2022-12-05T06:34:40;101746.59;;;7.19;100.00
11523;BME280;40093;43.224;27.910;2022-12-05T06:37:07;101748.34;;;7.15;100.00
11523;BME280;40093;43.224;27.910;2022-12-05T06:39:34;101745.94;;;7.05;100.00
11523;BME280;40093;43.224;27.910;2022-12-05T06:42:01;101745.13;;;7.13;100.00
11523;BME280;40093;43.224;27.910;2022-12-05T06:44:28;101747.41;;;7.11;100.00
11523;BME280;40093;43.224;27.910;2022-12-05T06:46:56;101742.22;;;7.18;100.00
11523;BME280;40093;43.224;27.910;2022-12-05T06:49:24;101753.19;;;7.27;100.00
11523;BME280;40093;43.224;27.910;2022-12-05T06:51:56;101754.00;;;7.35;100.00
11523;BME280;40093;43.224;27.910;2022-12-05T06:54:23;101750.41;;;7.43;100.00
11523;BME280;40093;43.224;27.910;2022-12-05T06:56:50;101750.44;;;7.35;100.00
11523;BME280;40093;43.224;27.910;2022-12-05T06:59:17;101760.25;;;7.44;100.00
11523;BME280;40093;43.224;27.910;2022-12-05T07:01:44;101752.69;;;7.41;100.00
11523;BME280;40093;43.224;27.910;2022-12-05T07:04:14;101750.44;;;7.35;100.00
11523;BME280;40093;43.224;27.910;2022-12-05T07:06:43;101761.56;;;7.38;100.00
11523;BME280;40093;43.224;27.910;2022-12-05T07:09:10;101760.56;;;7.43;100.00
11523;BME280;40093;43.224;27.910;2022-12-05T07:11:38;101754.44;;;7.46;100.00
11523;BME280;40093;43.224;27.910;2022-12-05T07:14:05;101766.84;;;7.60;100.00
11523;BME280;40093;43.224;27.910;2022-12-05T07:16:34;101760.75;;;7.46;100.00
11523;BME280;40093;43.224;27.910;2022-12-05T07:19:01;101764.91;;;7.52;100.00
11523;BME280;40093;43.224;27.910;2022-12-05T07:21:30;101764.75;;;7.49;100.00
11523;BME280;40093;43.224;27.910;2022-12-05T07:23:56;101740.59;;;7.51;100.00
11523;BME280;40093;43.224;27.910;2022-12-05T07:26:24;101754.63;;;7.41;100.00
11523;BME280;40093;43.224;27.910;2022-12-05T07:28:54;101765.06;;;7.56;100.00
11523;BME280;40093;43.224;27.910;2022-12-05T07:31:22;101773.91;;;7.61;100.00
11523;BME280;40093;43.224;27.910;2022-12-05T07:33:50;101765.53;;;7.58;100.00
11523;BME280;40093;43.224;27.910;2022-12-05T07:36:19;101752.50;;;7.55;100.00
11523;BME280;40093;43.224;27.910;2022-12-05T07:38:54;101754.25;;;7.59;100.00
11523;BME280;40093;43.224;27.910;2022-12-05T07:41:24;101766.31;;;7.67;100.00
11523;BME280;40093;43.224;27.910;2022-12-05T07:43:52;101762.78;;;7.75;100.00
11523;BME280;40093;43.224;27.910;2022-12-05T07:46:20;101759.56;;;7.73;100.00
11523;BME280;40093;43.224;27.910;2022-12-05T07:48:47;101781.47;;;7.73;100.00
11523;BME280;40093;43.224;27.910;2022-12-05T07:51:15;101775.66;;;7.83;100.00
11523;BME280;40093;43.224;27.910;2022-12-05T07:53:43;101779.50;;;7.82;100.00
11523;BME280;40093;43.224;27.910;2022-12-05T07:56:14;101785.16;;;7.77;100.00
11523;BME280;40093;43.224;27.910;2022-12-05T07:58:43;101781.75;;;7.80;100.00
11523;BME280;40093;43.224;27.910;2022-12-05T08:01:12;101768.41;;;7.78;100.00
11523;BME280;40093;43.224;27.910;2022-12-05T08:03:39;101796.13;;;7.77;100.00
11523;BME280;40093;43.224;27.910;2022-12-05T08:06:08;101781.13;;;7.83;100.00
11523;BME280;40093;43.224;27.910;2022-12-05T08:08:35;101773.06;;;7.78;100.00
11523;BME280;40093;43.224;27.910;2022-12-05T08:11:04;101785.78;;;7.82;100.00
11523;BME280;40093;43.224;27.910;2022-12-05T08:13:33;101764.34;;;7.84;100.00
11523;BME280;40093;43.224;27.910;2022-12-05T08:16:01;101784.94;;;7.99;100.00
11523;BME280;40093;43.224;27.910;2022-12-05T08:18:28;101780.75;;;7.93;100.00
11523;BME280;40093;43.224;27.910;2022-12-05T08:21:01;101792.22;;;7.86;100.00
11523;BME280;40093;43.224;27.910;2022-12-05T08:23:29;101783.34;;;7.98;100.00
11523;BME280;40093;43.224;27.910;2022-12-05T08:26:00;101783.66;;;8.05;100.00
11523;BME280;40093;43.224;27.910;2022-12-05T08:28:27;101774.91;;;8.20;100.00
11523;BME280;40093;43.224;27.910;2022-12-05T08:30:59;101782.81;;;8.04;100.00
11523;BME280;40093;43.224;27.910;2022-12-05T08:33:28;101776.41;;;8.00;100.00
11523;BME280;40093;43.224;27.910;2022-12-05T08:35:55;101784.88;;;8.16;100.00
11523;BME280;40093;43.224;27.910;2022-12-05T08:38:22;101774.22;;;8.23;100.00
11523;BME280;40093;43.224;27.910;2022-12-05T08:40:49;101773.44;;;8.22;100.00
11523;BME280;40093;43.224;27.910;2022-12-05T08:43:16;101777.63;;;8.20;100.00
11523;BME280;40093;43.224;27.910;2022-12-05T08:45:48;101781.81;;;8.17;100.00
11523;BME280;40093;43.224;27.910;2022-12-05T08:48:16;101778.78;;;8.19;100.00
11523;BME280;40093;43.224;27.910;2022-12-05T08:50:44;101773.44;;;8.22;100.00
11523;BME280;40093;43.224;27.910;2022-12-05T08:53:11;101760.00;;;8.29;100.00
11523;BME280;40093;43.224;27.910;2022-12-05T08:55:38;101769.22;;;8.25;100.00
11523;BME280;40093;43.224;27.910;2022-12-05T08:58:06;101761.44;;;8.35;100.00
11523;BME280;40093;43.224;27.910;2022-12-05T09:00:33;101776.03;;;8.19;100.00
11523;BME280;40093;43.224;27.910;2022-12-05T09:03:00;101761.47;;;8.27;100.00
11523;BME280;40093;43.224;27.910;2022-12-05T09:05:29;101770.91;;;8.46;100.00
11523;BME280;40093;43.224;27.910;2022-12-05T09:07:56;101765.16;;;8.31;100.00
11523;BME280;40093;43.224;27.910;2022-12-05T09:10:24;101761.59;;;8.39;100.00
11523;BME280;40093;43.224;27.910;2022-12-05T09:12:52;101769.69;;;8.56;100.00
11523;BME280;40093;43.224;27.910;2022-12-05T09:15:20;101753.72;;;8.58;100.00
11523;BME280;40093;43.224;27.910;2022-12-05T09:17:46;101764.88;;;8.82;100.00
11523;BME280;40093;43.224;27.910;2022-12-05T09:20:13;101757.09;;;8.84;100.00
11523;BME280;40093;43.224;27.910;2022-12-05T09:22:42;101780.53;;;8.81;100.00
11523;BME280;40093;43.224;27.910;2022-12-05T09:25:09;101764.88;;;8.82;100.00
11523;BME280;40093;43.224;27.910;2022-12-05T09:27:36;101758.31;;;8.95;100.00
11523;BME280;40093;43.224;27.910;2022-12-05T09:30:04;101772.88;;;8.87;100.00
11523;BME280;40093;43.224;27.910;2022-12-05T09:32:31;101758.22;;;8.62;100.00
11523;BME280;40093;43.224;27.910;2022-12-05T09:34:58;101755.13;;;8.64;100.00
11523;BME280;40093;43.224;27.910;2022-12-05T09:37:25;101746.13;;;8.84;100.00
11523;BME280;40093;43.224;27.910;2022-12-05T09:39:54;101750.13;;;9.07;100.00
11523;BME280;40093;43.224;27.910;2022-12-05T09:42:29;101748.66;;;9.09;100.00
11523;BME280;40093;43.224;27.910;2022-12-05T09:45:21;101754.13;;;9.30;100.00
11523;BME280;40093;43.224;27.910;2022-12-05T09:47:53;101755.50;;;9.24;100.00
11523;BME280;40093;43.224;27.910;2022-12-05T09:50:24;101749.81;;;9.41;100.00
11523;BME280;40093;43.224;27.910;2022-12-05T09:53:03;101749.00;;;9.28;100.00
11523;BME280;40093;43.224;27.910;2022-12-05T09:55:37;101755.09;;;9.34;100.00
11523;BME280;40093;43.224;27.910;2022-12-05T09:58:16;101758.25;;;9.24;100.00
11523;BME280;40093;43.224;27.910;2022-12-05T10:00:45;101760.13;;;9.32;100.00
11523;BME280;40093;43.224;27.910;2022-12-05T10:03:20;101749.72;;;9.17;100.00
11523;BME280;40093;43.224;27.910;2022-12-05T10:05:55;101750.66;;;9.21;100.00
11523;BME280;40093;43.224;27.910;2022-12-05T10:08:28;101750.25;;;9.31;100.00
11523;BME280;40093;43.224;27.910;2022-12-05T10:11:03;101742.06;;;9.43;100.00
11523;BME280;40093;43.224;27.910;2022-12-05T10:13:43;101745.16;;;9.41;100.00
11523;BME280;40093;43.224;27.910;2022-12-05T10:16:14;101748.41;;;9.23;100.00
11523;BME280;40093;43.224;27.910;2022-12-05T10:18:46;101741.81;;;9.36;100.00
11523;BME280;40093;43.224;27.910;2022-12-05T10:21:18;101747.50;;;9.31;100.00
11523;BME280;40093;43.224;27.910;2022-12-05T10:23:52;101732.97;;;9.30;100.00
11523;BME280;40093;43.224;27.910;2022-12-05T10:26:23;101730.78;;;9.24;100.00
11523;BME280;40093;43.224;27.910;2022-12-05T10:28:56;101728.69;;;9.21;100.00
11523;BME280;40093;43.224;27.910;2022-12-05T10:31:29;101732.28;;;9.33;100.00
11523;BME280;40093;43.224;27.910;2022-12-05T10:34:03;101729.22;;;9.14;100.00
11523;BME280;40093;43.224;27.910;2022-12-05T10:36:33;101732.72;;;9.03;100.00
11523;BME280;40093;43.224;27.910;2022-12-05T10:39:03;101726.97;;;9.16;100.00
11523;BME280;40093;43.224;27.910;2022-12-05T10:41:33;101712.19;;;9.21;100.00
11523;BME280;40093;43.224;27.910;2022-12-05T10:44:00;101715.06;;;9.24;100.00
11523;BME280;40093;43.224;27.910;2022-12-05T10:46:27;101718.41;;;9.30;100.00
11523;BME280;40093;43.224;27.910;2022-12-05T10:48:54;101713.41;;;9.32;100.00
11523;BME280;40093;43.224;27.910;2022-12-05T10:51:26;101700.97;;;9.14;100.00
11523;BME280;40093;43.224;27.910;2022-12-05T10:53:55;101714.34;;;9.36;100.00
11523;BME280;40093;43.224;27.910;2022-12-05T10:56:37;101714.59;;;9.43;100.00
11523;BME280;40093;43.224;27.910;2022-12-05T10:59:10;101717.41;;;9.34;100.00
11523;BME280;40093;43.224;27.910;2022-12-05T11:01:38;101705.47;;;9.18;100.00
11523;BME280;40093;43.224;27.910;2022-12-05T11:04:19;101691.88;;;9.01;100.00
11523;BME280;40093;43.224;27.910;2022-12-05T11:06:52;101704.59;;;9.06;100.00
11523;BME280;40093;43.224;27.910;2022-12-05T11:09:21;101695.63;;;9.17;100.00
11523;BME280;40093;43.224;27.910;2022-12-05T11:12:17;101701.47;;;9.28;100.00
11523;BME280;40093;43.224;27.910;2022-12-05T11:14:54;101695.97;;;9.28;100.00
11523;BME280;40093;43.224;27.910;2022-12-05T11:17:24;101691.84;;;9.22;100.00
11523;BME280;40093;43.224;27.910;2022-12-05T11:19:52;101685.13;;;9.31;100.00
11523;BME280;40093;43.224;27.910;2022-12-05T11:22:19;101694.44;;;9.51;100.00
11523;BME280;40093;43.224;27.910;2022-12-05T11:24:47;101689.63;;;9.48;100.00
11523;BME280;40093;43.224;27.910;2022-12-05T11:27:26;101685.88;;;9.52;100.00
11523;BME280;40093;43.224;27.910;2022-12-05T11:29:57;101685.41;;;9.50;100.00
11523;BME280;40093;43.224;27.910;2022-12-05T11:32:26;101684.56;;;9.38;100.00
11523;BME280;40093;43.224;27.910;2022-12-05T11:34:57;101685.69;;;9.25;100.00
11523;BME280;40093;43.224;27.910;2022-12-05T11:37:30;101679.91;;;9.18;100.00
11523;BME280;40093;43.224;27.910;2022-12-05T11:39:59;101681.69;;;9.34;100.00
11523;BME280;40093;43.224;27.910;2022-12-05T11:42:36;101672.88;;;9.41;100.00
11523;BME280;40093;43.224;27.910;2022-12-05T11:45:14;101669.13;;;9.45;100.00
11523;BME280;40093;43.224;27.910;2022-12-05T11:47:57;101661.91;;;9.41;100.00
11523;BME280;40093;43.224;27.910;2022-12-05T11:50:37;101663.47;;;9.30;100.00
11523;BME280;40093;43.224;27.910;2022-12-05T11:53:22;101662.63;;;9.50;100.00
11523;BME280;40093;43.224;27.910;2022-12-05T11:56:02;101661.63;;;9.78;100.00
11523;BME280;40093;43.224;27.910;2022-12-05T11:58:51;101658.78;;;9.98;100.00
11523;BME280;40093;43.224;27.910;2022-12-05T12:01:27;101660.72;;;9.98;100.00
11523;BME280;40093;43.224;27.910;2022-12-05T12:06:50;101660.97;;;10.17;100.00
11523;BME280;40093;43.224;27.910;2022-12-05T12:09:32;101664.41;;;10.26;100.00
11523;BME280;40093;43.224;27.910;2022-12-05T12:12:06;101656.38;;;10.33;100.00
11523;BME280;40093;43.224;27.910;2022-12-05T12:14:45;101645.94;;;10.26;100.00
11523;BME280;40093;43.224;27.910;2022-12-05T12:17:22;101652.34;;;10.42;100.00
11523;BME280;40093;43.224;27.910;2022-12-05T12:20:09;101648.00;;;10.41;100.00
11523;BME280;40093;43.224;27.910;2022-12-05T12:22:49;101648.50;;;10.19;100.00
11523;BME280;40093;43.224;27.910;2022-12-05T12:25:29;101626.94;;;10.09;100.00
11523;BME280;40093;43.224;27.910;2022-12-05T12:28:10;101645.97;;;10.14;100.00
11523;BME280;40093;43.224;27.910;2022-12-05T12:30:54;101640.44;;;10.26;100.00
11523;BME280;40093;43.224;27.910;2022-12-05T12:33:31;101644.13;;;10.30;100.00
11523;BME280;40093;43.224;27.910;2022-12-05T12:36:10;101641.56;;;10.37;100.00
11523;BME280;40093;43.224;27.910;2022-12-05T12:38:50;101626.69;;;10.38;100.00
11523;BME280;40093;43.224;27.910;2022-12-05T12:41:35;101629.88;;;10.40;100.00
11523;BME280;40093;43.224;27.910;2022-12-05T12:44:25;101631.13;;;10.43;100.00
11523;BME280;40093;43.224;27.910;2022-12-05T12:47:00;101612.94;;;10.14;100.00
11523;BME280;40093;43.224;27.910;2022-12-05T12:49:38;101639.97;;;10.36;100.00
11523;BME280;40093;43.224;27.910;2022-12-05T12:52:12;101627.16;;;10.28;100.00
11523;BME280;40093;43.224;27.910;2022-12-05T12:57:33;101622.97;;;10.46;100.00
11523;BME280;40093;43.224;27.910;2022-12-05T13:00:16;101628.47;;;10.46;100.00
11523;BME280;40093;43.224;27.910;2022-12-05T13:02:50;101626.31;;;10.40;100.00
11523;BME280;40093;43.224;27.910;2022-12-05T13:05:25;101628.28;;;10.39;100.00
11523;BME280;40093;43.224;27.910;2022-12-05T13:07:56;101626.75;;;10.42;100.00
11523;BME280;40093;43.224;27.910;2022-12-05T13:10:28;101619.13;;;10.23;100.00